Portada
METAR-TAF:

METAR-TAF

Aeroports :

Kupang, Indonèsia

latitud: 10-10-17S, longitud: 123-40-16E, altitud: 102 m

Observació

L'informe es va fer fa 19 minuts, a les 06:30 UTC
Vent 8 kt del Nord-Oest
Temperatura 31°C
Humitat 63%
Pressió 1009 hPa
Visibilitat 10 km o més
Escasses núvols a una alçada de 1800 ft

METAR: WATT 250630Z 32008KT 9999 FEW018 31/23 Q1009 NOSIG

Hora: 13:49 (06:49 UTC)

Pronòstic

L'informe es va fer fa 1 hora i 49 minuts, a les 05:00 UTC
Pronòstic vàlid del 25 a les 06 UTC al 26 a les 06 UTC
Vent 8 kt del Nord-Oest
Visibilitat: 9000 m
Escasses núvols a una alçada de 1800 ft
Evolucionant progressivament
l' 25 a les 10 UTC al 25 a les 12 UTC
Vent 8 kt del Est

TAF: WATT 250500Z 2506/2606 32008KT 9000 FEW018 BECMG 2510/2512 10008KT

Observacions i pronòstics meteorològics de més de 4000 aeroports (METAR i TAF).

Les estacions disponibles són els punts grocs i vermells al mapa.

Posi el ratolí al punt desitjat per veure el nom de l'estació.

Feu clic per veure les observacions i els pronòstics meteorològics.

Per canviar el mapa: feu clic els botons verds amb una creu de color negre per apropar; al botó verd amb un guió per allunyar la imatge; o en les fletxes verdes per a mapes adjacents.


METAR-TAF: